createdAt,value
2018-11-26T00:00:13.955Z,4.90
2018-11-26T00:02:42.216Z,4.70
2018-11-26T00:05:10.410Z,4.60
2018-11-26T00:07:39.096Z,4.40
2018-11-26T00:10:18.601Z,4.30
2018-11-26T00:12:46.842Z,4.30
2018-11-26T00:15:15.027Z,4.00
2018-11-26T00:17:43.309Z,3.90
2018-11-26T00:20:11.508Z,3.80
2018-11-26T00:22:40.645Z,3.70
2018-11-26T00:25:08.983Z,3.70
2018-11-26T00:27:37.193Z,3.70
2018-11-26T00:30:07.001Z,3.80
2018-11-26T00:32:35.516Z,3.80
2018-11-26T00:35:07.716Z,3.90
2018-11-26T00:37:36.009Z,3.90
2018-11-26T00:40:04.348Z,3.90
2018-11-26T00:42:32.514Z,3.90
2018-11-26T00:45:00.888Z,3.80
2018-11-26T00:47:29.072Z,3.90
2018-11-26T00:50:00.140Z,3.90
2018-11-26T00:52:28.337Z,4.00
2018-11-26T00:54:56.561Z,4.10
2018-11-26T00:57:25.768Z,4.10
2018-11-26T00:59:53.964Z,4.10
2018-11-26T01:02:22.177Z,4.10
2018-11-26T01:04:58.380Z,4.10
2018-11-26T01:07:26.657Z,4.10
2018-11-26T01:09:54.855Z,4.20
2018-11-26T01:12:23.092Z,4.20
2018-11-26T01:14:51.329Z,4.20
2018-11-26T01:17:19.604Z,4.30
2018-11-26T01:19:47.797Z,4.20
2018-11-26T01:22:23.571Z,4.20
2018-11-26T01:24:52.304Z,4.20
2018-11-26T01:27:20.665Z,4.10
2018-11-26T01:29:48.878Z,4.10
2018-11-26T01:32:17.064Z,4.10
2018-11-26T01:34:45.285Z,4.10
2018-11-26T01:37:13.477Z,4.10
2018-11-26T01:39:41.688Z,4.10
2018-11-26T01:42:09.917Z,4.10
2018-11-26T01:44:38.087Z,4.20
2018-11-26T01:47:12.941Z,4.20
2018-11-26T01:49:41.132Z,4.10
2018-11-26T01:52:09.323Z,4.10
2018-11-26T01:54:37.536Z,4.20
2018-11-26T01:57:05.845Z,4.20
2018-11-26T01:59:34.072Z,4.10
2018-11-26T02:02:02.256Z,4.10
2018-11-26T02:04:30.563Z,4.00
2018-11-26T02:06:58.840Z,4.00
2018-11-26T02:09:27.044Z,4.10
2018-11-26T02:11:55.241Z,4.00
2018-11-26T02:14:23.464Z,4.10
2018-11-26T02:16:51.668Z,4.10
2018-11-26T02:19:19.868Z,4.10
2018-11-26T02:21:48.071Z,4.10
2018-11-26T02:24:16.279Z,4.10
2018-11-26T02:26:44.524Z,4.10
2018-11-26T02:29:12.726Z,4.20
2018-11-26T02:31:40.937Z,4.20
2018-11-26T02:34:09.160Z,4.20
2018-11-26T02:36:37.341Z,4.10
2018-11-26T02:39:07.007Z,4.10
2018-11-26T02:41:35.225Z,4.10
2018-11-26T02:44:03.396Z,4.20
2018-11-26T02:46:31.656Z,4.10
2018-11-26T02:48:59.994Z,4.10
2018-11-26T02:51:28.171Z,4.10
2018-11-26T02:53:56.377Z,4.10
2018-11-26T02:56:24.926Z,4.10
2018-11-26T02:58:53.140Z,4.00
2018-11-26T03:01:21.360Z,4.10
2018-11-26T03:03:49.644Z,4.10
2018-11-26T03:06:17.861Z,4.10
2018-11-26T03:08:46.048Z,4.10
2018-11-26T03:11:14.299Z,4.10
2018-11-26T03:13:42.521Z,4.10
2018-11-26T03:16:10.778Z,4.10
2018-11-26T03:18:38.967Z,4.20
2018-11-26T03:21:07.285Z,4.20
2018-11-26T03:23:35.542Z,4.10
2018-11-26T03:26:03.737Z,4.00
2018-11-26T03:28:31.940Z,3.90
2018-11-26T03:31:00.155Z,4.00
2018-11-26T03:33:28.429Z,4.00
2018-11-26T03:35:56.638Z,4.00
2018-11-26T03:38:59.880Z,3.90
2018-11-26T03:41:28.851Z,3.90
2018-11-26T03:43:57.095Z,3.90
2018-11-26T03:46:25.293Z,3.80
2018-11-26T03:48:53.517Z,3.80
2018-11-26T03:51:21.692Z,3.80
2018-11-26T03:53:49.911Z,3.80
2018-11-26T03:56:18.091Z,3.70
2018-11-26T03:58:46.302Z,3.70
2018-11-26T04:01:14.476Z,3.80
2018-11-26T04:03:42.668Z,3.80
2018-11-26T04:06:10.987Z,3.90
2018-11-26T04:08:39.291Z,3.80
2018-11-26T04:11:07.496Z,3.90
2018-11-26T04:13:35.698Z,3.90
2018-11-26T04:16:03.924Z,3.80
2018-11-26T04:18:32.174Z,3.70
2018-11-26T04:21:00.369Z,3.70
2018-11-26T04:23:33.333Z,3.70
2018-11-26T04:26:01.603Z,3.70
2018-11-26T04:28:29.946Z,3.70
2018-11-26T04:30:58.142Z,3.70
2018-11-26T04:33:27.256Z,3.70
2018-11-26T04:35:55.456Z,3.70
2018-11-26T04:38:23.674Z,3.60
2018-11-26T04:40:52.531Z,3.60
2018-11-26T04:43:20.712Z,3.70
2018-11-26T04:45:48.921Z,3.60
2018-11-26T04:48:17.184Z,3.60
2018-11-26T04:50:45.360Z,3.60
2018-11-26T04:53:13.600Z,3.70
2018-11-26T04:55:41.888Z,3.70
2018-11-26T04:58:10.073Z,3.70
2018-11-26T05:00:38.708Z,3.80
2018-11-26T05:03:06.924Z,3.80
2018-11-26T05:05:35.133Z,3.80
2018-11-26T05:08:03.447Z,3.80
2018-11-26T05:10:31.592Z,3.80
2018-11-26T05:12:59.723Z,3.80
2018-11-26T05:15:27.931Z,3.80
2018-11-26T05:17:56.184Z,3.80
2018-11-26T05:20:24.396Z,3.70
2018-11-26T05:22:52.588Z,3.70
2018-11-26T05:25:23.739Z,3.70
2018-11-26T05:27:51.904Z,3.70
2018-11-26T05:30:20.128Z,3.70
2018-11-26T05:32:48.357Z,3.80
2018-11-26T05:35:16.591Z,3.80
2018-11-26T05:37:45.824Z,3.70
2018-11-26T05:40:18.107Z,3.80
2018-11-26T05:42:46.357Z,3.80
2018-11-26T05:45:15.599Z,3.90
2018-11-26T05:47:43.919Z,3.90
2018-11-26T05:50:13.009Z,3.90
2018-11-26T05:52:41.530Z,3.90
2018-11-26T05:55:12.120Z,4.00
2018-11-26T05:57:43.877Z,4.00
2018-11-26T06:00:21.865Z,3.90
2018-11-26T06:02:50.146Z,3.90
2018-11-26T06:05:18.613Z,4.00
2018-11-26T06:07:46.812Z,4.00
2018-11-26T06:10:15.033Z,4.00
2018-11-26T06:12:50.805Z,4.00
2018-11-26T06:15:19.512Z,4.00
2018-11-26T06:17:47.716Z,4.00
2018-11-26T06:20:15.962Z,4.00
2018-11-26T06:22:45.244Z,4.00
2018-11-26T06:30:19.600Z,4.00
2018-11-26T06:32:47.852Z,3.90
2018-11-26T06:35:20.172Z,3.90
2018-11-26T06:37:48.399Z,3.90
2018-11-26T06:40:16.684Z,3.90
2018-11-26T06:42:45.987Z,4.00
2018-11-26T06:45:22.588Z,3.90
2018-11-26T06:47:51.107Z,3.90
2018-11-26T06:50:20.276Z,3.90
2018-11-26T06:52:48.468Z,4.00
2018-11-26T06:55:19.453Z,4.00
2018-11-26T06:57:52.328Z,4.00
2018-11-26T07:00:21.050Z,4.00
2018-11-26T07:02:49.268Z,4.00
2018-11-26T07:05:20.935Z,4.10
2018-11-26T07:07:49.282Z,4.10
2018-11-26T07:10:19.133Z,4.10
2018-11-26T07:12:54.974Z,4.10
2018-11-26T07:15:23.251Z,4.10
2018-11-26T07:17:51.708Z,4.20
2018-11-26T07:20:20.841Z,4.10
2018-11-26T07:22:49.718Z,4.20
2018-11-26T07:25:19.755Z,4.20
2018-11-26T07:27:52.389Z,4.30
2018-11-26T07:30:21.784Z,4.20
2018-11-26T07:32:50.595Z,4.20
2018-11-26T07:35:18.922Z,4.20
2018-11-26T07:37:47.180Z,4.20
2018-11-26T07:40:20.389Z,4.30
2018-11-26T07:42:55.548Z,4.40
2018-11-26T07:45:23.732Z,4.40
2018-11-26T07:47:51.981Z,4.40
2018-11-26T07:50:20.180Z,4.40
2018-11-26T07:52:48.395Z,4.40
2018-11-26T07:55:19.025Z,4.40
2018-11-26T07:57:51.092Z,4.40
2018-11-26T08:00:20.379Z,4.40
2018-11-26T08:02:49.145Z,4.40
2018-11-26T08:05:19.820Z,4.50
2018-11-26T08:07:48.020Z,4.50
2018-11-26T08:10:18.352Z,4.50
2018-11-26T08:12:50.785Z,4.50
2018-11-26T08:15:20.028Z,4.60
2018-11-26T08:17:48.792Z,4.70
2018-11-26T08:20:17.123Z,4.70
2018-11-26T08:22:45.333Z,4.70
2018-11-26T08:25:16.098Z,4.80
2018-11-26T08:27:48.954Z,4.90
2018-11-26T08:30:25.494Z,5.00
2018-11-26T08:32:54.886Z,5.10
2018-11-26T08:35:23.205Z,5.20
2018-11-26T08:37:56.982Z,5.40
2018-11-26T08:40:27.400Z,5.60
2018-11-26T08:43:16.800Z,5.70
2018-11-26T08:45:53.295Z,5.80
2018-11-26T08:48:27.727Z,5.80
2018-11-26T08:50:57.575Z,5.80
2018-11-26T08:53:25.965Z,5.90
2018-11-26T08:55:54.139Z,5.90
2018-11-26T08:58:25.955Z,5.90
2018-11-26T09:00:59.597Z,6.00
2018-11-26T09:03:33.580Z,6.00
2018-11-26T09:06:02.638Z,5.90
2018-11-26T09:08:32.052Z,5.70
2018-11-26T09:11:00.846Z,5.70
2018-11-26T09:18:28.236Z,5.60
2018-11-26T09:20:56.468Z,5.60
2018-11-26T09:23:24.988Z,5.60
2018-11-26T09:25:53.887Z,5.70
2018-11-26T09:28:22.262Z,5.70
2018-11-26T09:30:50.496Z,5.70
2018-11-26T09:33:18.701Z,5.70
2018-11-26T09:35:46.933Z,5.70
2018-11-26T09:38:15.281Z,5.70
2018-11-26T09:40:43.532Z,5.80
2018-11-26T09:43:11.766Z,5.80
2018-11-26T09:45:40.474Z,5.90
2018-11-26T09:48:08.329Z,6.00
2018-11-26T09:50:36.924Z,6.00
2018-11-26T09:53:05.233Z,6.10
2018-11-26T09:55:33.476Z,6.10
2018-11-26T09:58:01.763Z,6.20
2018-11-26T10:00:29.980Z,6.20
2018-11-26T10:02:58.855Z,6.30
2018-11-26T10:05:27.121Z,6.30
2018-11-26T10:07:55.764Z,6.30
2018-11-26T10:10:23.956Z,6.30
2018-11-26T10:12:52.280Z,6.30
2018-11-26T10:15:22.600Z,6.30
2018-11-26T10:17:51.057Z,6.30
2018-11-26T10:20:19.330Z,6.30
2018-11-26T10:22:48.193Z,6.30
2018-11-26T10:25:17.520Z,6.30
2018-11-26T10:27:45.712Z,6.30
2018-11-26T10:30:18.893Z,6.30
2018-11-26T10:32:47.778Z,6.50
2018-11-26T10:35:17.108Z,6.60
2018-11-26T10:37:45.311Z,6.60
2018-11-26T10:40:20.968Z,6.60
2018-11-26T10:42:49.275Z,6.50
2018-11-26T10:45:18.528Z,6.50
2018-11-26T10:47:46.785Z,6.50
2018-11-26T10:50:16.514Z,6.60
2018-11-26T10:52:47.819Z,6.60
2018-11-26T10:55:17.329Z,6.70
2018-11-26T10:57:45.877Z,6.80
2018-11-26T11:00:20.399Z,6.80
2018-11-26T11:02:49.475Z,6.70
2018-11-26T11:05:17.878Z,6.60
2018-11-26T11:07:47.037Z,6.60
2018-11-26T11:10:16.536Z,6.70
2018-11-26T11:12:44.912Z,6.80
2018-11-26T11:15:13.503Z,6.90
2018-11-26T11:17:41.777Z,6.90
2018-11-26T11:20:27.072Z,6.90
2018-11-26T11:22:55.268Z,6.80
2018-11-26T11:25:24.031Z,6.80
2018-11-26T11:27:52.471Z,6.90
2018-11-26T11:30:25.830Z,6.90
2018-11-26T11:32:54.019Z,6.90
2018-11-26T11:35:22.238Z,6.80
2018-11-26T11:37:51.116Z,6.70
2018-11-26T11:40:22.041Z,6.70
2018-11-26T11:42:50.501Z,6.70
2018-11-26T11:45:18.780Z,6.70
2018-11-26T11:47:47.028Z,6.70
2018-11-26T11:50:16.593Z,6.80
2018-11-26T11:52:45.094Z,6.80
2018-11-26T11:55:15.194Z,6.80
2018-11-26T11:57:43.436Z,6.90
2018-11-26T12:00:21.602Z,6.90
2018-11-26T12:02:49.892Z,7.00
2018-11-26T12:05:18.130Z,6.90
2018-11-26T12:07:46.407Z,6.90
2018-11-26T12:10:14.673Z,6.90
2018-11-26T12:12:43.184Z,7.10
2018-11-26T12:15:13.611Z,7.10
2018-11-26T12:17:42.215Z,7.20
2018-11-26T12:20:11.608Z,7.30
2018-11-26T12:22:40.177Z,7.40
2018-11-26T12:25:10.246Z,7.40
2018-11-26T12:27:38.530Z,7.40
2018-11-26T12:30:15.181Z,7.50
2018-11-26T12:32:46.974Z,7.50
2018-11-26T12:35:15.164Z,7.50
2018-11-26T12:37:43.423Z,7.50
2018-11-26T12:40:13.977Z,7.50
2018-11-26T12:42:42.177Z,7.50
2018-11-26T12:45:16.849Z,7.40
2018-11-26T12:47:45.058Z,7.40
2018-11-26T12:50:13.382Z,7.30
2018-11-26T12:52:41.601Z,7.30
2018-11-26T12:55:11.412Z,7.30
2018-11-26T12:57:40.299Z,7.20
2018-11-26T13:00:15.579Z,7.20
2018-11-26T13:02:47.462Z,7.20
2018-11-26T13:05:16.668Z,7.20
2018-11-26T13:07:45.749Z,7.20
2018-11-26T13:10:14.847Z,7.30
2018-11-26T13:12:43.404Z,7.30
2018-11-26T13:15:15.441Z,7.30
2018-11-26T13:17:43.655Z,7.20
2018-11-26T13:20:13.865Z,7.30
2018-11-26T13:22:42.157Z,7.20
2018-11-26T13:25:11.877Z,7.20
2018-11-26T13:27:50.398Z,7.30
2018-11-26T13:30:19.889Z,7.20
2018-11-26T13:32:55.550Z,7.10
2018-11-26T13:35:24.466Z,7.20
2018-11-26T13:37:52.713Z,7.10
2018-11-26T13:40:21.698Z,7.10
2018-11-26T13:42:50.429Z,7.10
2018-11-26T13:45:21.975Z,7.20
2018-11-26T13:47:54.536Z,7.20
2018-11-26T13:50:31.110Z,7.10
2018-11-26T13:52:59.369Z,7.00
2018-11-26T13:55:27.626Z,7.00
2018-11-26T13:57:56.638Z,6.90
2018-11-26T14:00:24.812Z,6.90
2018-11-26T14:02:56.090Z,6.90
2018-11-26T14:05:24.228Z,7.00
2018-11-26T14:07:52.424Z,6.80
2018-11-26T14:10:24.729Z,6.80
2018-11-26T14:12:59.553Z,6.90
2018-11-26T14:15:28.806Z,6.90
2018-11-26T14:17:56.995Z,6.80
2018-11-26T14:20:25.205Z,6.80
2018-11-26T14:22:53.449Z,6.80
2018-11-26T14:25:21.680Z,6.80
2018-11-26T14:27:50.449Z,6.80
2018-11-26T14:30:24.186Z,6.70
2018-11-26T14:32:52.673Z,6.70
2018-11-26T14:35:21.007Z,6.60
2018-11-26T14:37:53.277Z,6.50
2018-11-26T14:40:23.770Z,6.50
2018-11-26T14:42:51.984Z,6.50
2018-11-26T14:45:20.157Z,6.50
2018-11-26T14:47:50.370Z,6.40
2018-11-26T14:50:17.489Z,6.40
2018-11-26T14:52:46.927Z,6.40
2018-11-26T14:55:16.677Z,6.40
2018-11-26T14:57:44.941Z,6.40
2018-11-26T15:00:14.576Z,6.30
2018-11-26T15:02:43.695Z,6.30
2018-11-26T15:05:11.407Z,6.30
2018-11-26T15:07:39.672Z,6.30
2018-11-26T15:10:11.153Z,6.20
2018-11-26T15:12:39.648Z,6.20
2018-11-26T15:15:12.105Z,6.20
2018-11-26T15:17:40.951Z,6.20
2018-11-26T15:20:16.302Z,6.20
2018-11-26T15:22:44.569Z,6.10
2018-11-26T15:25:16.066Z,6.10
2018-11-26T15:27:44.426Z,6.10
2018-11-26T15:30:13.894Z,6.10
2018-11-26T15:32:42.197Z,6.10
2018-11-26T15:35:12.838Z,6.10
2018-11-26T15:37:42.326Z,6.10
2018-11-26T15:40:11.447Z,6.10
2018-11-26T15:42:39.700Z,6.10
2018-11-26T15:45:11.091Z,6.10
2018-11-26T15:47:39.336Z,6.10
2018-11-26T15:50:08.097Z,6.00
2018-11-26T15:52:37.146Z,5.90
2018-11-26T15:55:07.022Z,5.80
2018-11-26T15:57:35.436Z,5.80
2018-11-26T16:00:03.646Z,5.80
2018-11-26T16:02:32.018Z,5.70
2018-11-26T16:05:00.206Z,5.70
2018-11-26T16:07:28.482Z,5.60
2018-11-26T16:09:56.704Z,5.60
2018-11-26T16:12:24.893Z,5.60
2018-11-26T16:14:53.061Z,5.60
2018-11-26T16:17:21.409Z,5.50
2018-11-26T16:19:49.741Z,5.50
2018-11-26T16:22:18.062Z,5.50
2018-11-26T16:24:46.258Z,5.50
2018-11-26T16:27:14.509Z,5.50
2018-11-26T16:29:42.702Z,5.50
2018-11-26T16:32:10.990Z,5.50
2018-11-26T16:34:39.178Z,5.40
2018-11-26T16:37:07.566Z,5.40
2018-11-26T16:39:35.790Z,5.40
2018-11-26T16:42:03.978Z,5.40
2018-11-26T16:44:32.169Z,5.40
2018-11-26T16:47:00.394Z,5.30
2018-11-26T16:49:28.720Z,5.30
2018-11-26T16:51:56.912Z,5.30
2018-11-26T16:54:25.115Z,5.30
2018-11-26T16:56:53.453Z,5.20
2018-11-26T16:59:21.652Z,5.20
2018-11-26T17:01:49.906Z,5.20
2018-11-26T17:04:18.205Z,5.30
2018-11-26T17:06:46.598Z,5.30
2018-11-26T17:09:14.870Z,5.30
2018-11-26T17:11:43.076Z,5.20
2018-11-26T17:14:11.521Z,5.30
2018-11-26T17:16:39.766Z,5.20
2018-11-26T17:19:08.890Z,5.10
2018-11-26T17:21:41.062Z,5.10
2018-11-26T17:24:09.545Z,5.10
2018-11-26T17:26:37.845Z,5.10
2018-11-26T17:29:06.477Z,5.10
2018-11-26T17:31:34.729Z,5.10
2018-11-26T17:34:03.030Z,5.10
2018-11-26T17:36:31.274Z,5.00
2018-11-26T17:39:03.409Z,5.00
2018-11-26T17:41:31.634Z,5.00
2018-11-26T17:43:59.895Z,5.00
2018-11-26T17:46:28.184Z,4.90
2018-11-26T17:48:56.443Z,4.90
2018-11-26T17:51:25.074Z,4.90
2018-11-26T17:53:54.250Z,4.90
2018-11-26T17:56:22.635Z,4.90
2018-11-26T17:58:50.827Z,4.90
2018-11-26T18:01:24.568Z,5.00
2018-11-26T18:03:52.964Z,4.90
2018-11-26T18:06:23.753Z,4.80
2018-11-26T18:08:50.899Z,4.80
2018-11-26T18:11:20.032Z,4.80
2018-11-26T18:13:48.238Z,4.80
2018-11-26T18:16:16.481Z,4.80
2018-11-26T18:18:44.958Z,4.80
2018-11-26T18:21:13.398Z,4.70
2018-11-26T18:23:41.868Z,4.70
2018-11-26T18:26:10.423Z,4.60
2018-11-26T18:28:40.829Z,4.60
2018-11-26T18:31:09.855Z,4.70
2018-11-26T18:33:38.054Z,4.60
2018-11-26T18:36:07.096Z,4.60
2018-11-26T18:38:35.301Z,4.60
2018-11-26T18:41:03.522Z,4.60
2018-11-26T18:43:31.732Z,4.60
2018-11-26T18:45:59.905Z,4.50
2018-11-26T18:48:28.258Z,4.50
2018-11-26T18:50:56.510Z,4.50
2018-11-26T18:53:24.809Z,4.50
2018-11-26T18:55:53.316Z,4.50
2018-11-26T18:58:21.580Z,4.50
2018-11-26T19:00:52.494Z,4.50
2018-11-26T19:03:21.757Z,4.50
2018-11-26T19:05:51.333Z,4.50
2018-11-26T19:08:22.792Z,4.40
2018-11-26T19:10:54.946Z,4.40
2018-11-26T19:13:27.015Z,4.40
2018-11-26T19:16:01.650Z,4.40
2018-11-26T19:18:29.913Z,4.40
2018-11-26T19:20:58.162Z,4.40
2018-11-26T19:23:26.585Z,4.40
2018-11-26T19:25:55.050Z,4.40
2018-11-26T19:28:23.324Z,4.30
2018-11-26T19:30:51.599Z,4.30
2018-11-26T19:33:23.017Z,4.30
2018-11-26T19:35:51.841Z,4.30
2018-11-26T19:38:32.262Z,4.30
2018-11-26T19:41:00.520Z,4.30
2018-11-26T19:43:28.908Z,4.30
2018-11-26T19:45:57.156Z,4.30
2018-11-26T19:48:25.536Z,4.30
2018-11-26T19:50:53.759Z,4.30
2018-11-26T19:53:25.725Z,4.30
2018-11-26T19:55:54.039Z,4.30
2018-11-26T19:58:23.372Z,4.40
2018-11-26T20:00:51.633Z,4.30
2018-11-26T20:03:22.955Z,4.30
2018-11-26T20:06:29.584Z,4.20
2018-11-26T20:09:06.707Z,4.20
2018-11-26T20:11:35.099Z,4.20
2018-11-26T20:14:03.727Z,4.20
2018-11-26T20:16:35.440Z,4.20
2018-11-26T20:19:03.680Z,4.10
2018-11-26T20:21:32.406Z,4.10
2018-11-26T20:24:00.812Z,4.20
2018-11-26T20:26:29.712Z,4.20
2018-11-26T20:28:57.934Z,4.30
2018-11-26T20:31:27.155Z,4.20
2018-11-26T20:33:55.408Z,4.20
2018-11-26T20:36:23.643Z,4.10
2018-11-26T20:38:51.865Z,4.10
2018-11-26T20:41:20.086Z,4.20
2018-11-26T20:43:48.385Z,4.10
2018-11-26T20:46:16.765Z,4.20
2018-11-26T20:48:45.141Z,4.20
2018-11-26T20:51:13.735Z,4.10
2018-11-26T20:53:42.817Z,4.10
2018-11-26T20:56:14.850Z,4.10
2018-11-26T20:58:43.445Z,4.10
2018-11-26T21:01:12.365Z,4.10
2018-11-26T21:03:40.785Z,3.90
2018-11-26T21:06:09.058Z,3.90
2018-11-26T21:08:37.233Z,3.90
2018-11-26T21:11:05.483Z,4.00
2018-11-26T21:13:33.723Z,3.90
2018-11-26T21:16:02.101Z,3.90
2018-11-26T21:18:30.688Z,3.90
2018-11-26T21:20:58.964Z,4.00
2018-11-26T21:23:28.726Z,4.00
2018-11-26T21:25:58.291Z,3.90
2018-11-26T21:28:27.260Z,3.90
2018-11-26T21:30:55.474Z,4.00
2018-11-26T21:33:23.751Z,3.90
2018-11-26T21:35:52.101Z,3.90
2018-11-26T21:38:20.309Z,3.90
2018-11-26T21:40:48.626Z,3.80
2018-11-26T21:43:16.804Z,3.80
2018-11-26T21:45:49.096Z,3.80
2018-11-26T21:48:17.301Z,3.80
2018-11-26T21:50:45.505Z,3.80
2018-11-26T21:53:14.033Z,3.80
2018-11-26T21:55:42.263Z,3.80
2018-11-26T21:58:11.319Z,3.90
2018-11-26T22:00:40.466Z,3.90
2018-11-26T22:03:10.403Z,3.90
2018-11-26T22:05:39.454Z,3.80
2018-11-26T22:08:08.343Z,3.90
2018-11-26T22:10:37.571Z,3.80
2018-11-26T22:13:07.996Z,3.80
2018-11-26T22:15:37.351Z,3.80
2018-11-26T22:18:06.636Z,3.80
2018-11-26T22:20:35.027Z,3.70
2018-11-26T22:23:03.253Z,3.90
2018-11-26T22:25:32.022Z,3.90
2018-11-26T22:28:00.643Z,3.80
2018-11-26T22:30:30.693Z,3.90
2018-11-26T22:32:59.405Z,3.80
2018-11-26T22:35:27.680Z,3.80
2018-11-26T22:37:57.089Z,3.80
2018-11-26T22:40:26.266Z,3.80
2018-11-26T22:42:54.798Z,3.80
2018-11-26T22:45:27.857Z,3.80
2018-11-26T22:48:11.935Z,3.80
2018-11-26T22:50:42.813Z,3.70
2018-11-26T22:53:11.076Z,3.70
2018-11-26T22:55:39.244Z,3.70
2018-11-26T22:58:09.807Z,3.60
2018-11-26T23:00:41.989Z,3.60
2018-11-26T23:03:12.882Z,3.60
2018-11-26T23:05:41.416Z,3.60
2018-11-26T23:08:09.637Z,3.70
2018-11-26T23:10:37.867Z,3.80
2018-11-26T23:13:06.606Z,3.90
2018-11-26T23:20:29.388Z,3.80
2018-11-26T23:22:57.706Z,3.80
2018-11-26T23:25:25.915Z,3.90
2018-11-26T23:27:58.390Z,3.90
2018-11-26T23:30:27.897Z,3.80
2018-11-26T23:33:04.523Z,3.90
2018-11-26T23:35:32.764Z,3.90
2018-11-26T23:38:01.881Z,3.80
2018-11-26T23:40:30.171Z,3.90
2018-11-26T23:43:02.092Z,3.90
2018-11-26T23:45:30.353Z,3.90
2018-11-26T23:47:58.583Z,3.90
2018-11-26T23:50:26.896Z,3.80
2018-11-26T23:52:55.141Z,3.90
2018-11-26T23:55:24.153Z,3.90
2018-11-26T23:57:52.364Z,3.90
